Terminal Aerodrome Forecast
Issued by NWS

Home | Current Version | Previous Version | Graphics & Text | Print | Product List | Glossary On
Versions: 1 2 3 4 5 6 7 8 9 10 11 12 13 14 15 16 17 18 19
000
FTUS41 KCLE 211100 AAA
TAFFDY
TAF AMD
KFDY 211157Z 2112/2212 25012G22KT P6SM SCT018 BKN040
     FM211330 25012G22KT P6SM BKN018
     FM211500 28012G22KT P6SM BKN025
     FM212000 30015G22KT P6SM VCSH BKN035
     FM220000 34010KT P6SM BKN030=

USA.gov is the U.S. government's official web portal to all federal, state and local government web resources and services.